createdAt,value
2023-05-01T00:00:08.699Z,12.85
2023-05-01T00:02:35.088Z,13.23
2023-05-01T00:05:01.714Z,21.25
2023-05-01T00:07:30.334Z,18.50
2023-05-01T00:09:56.557Z,16.05
2023-05-01T00:12:22.790Z,16.45
2023-05-01T00:14:48.723Z,14.25
2023-05-01T00:17:14.633Z,19.48
2023-05-01T00:19:40.760Z,14.10
2023-05-01T00:22:06.613Z,13.93
2023-05-01T00:24:32.497Z,15.20
2023-05-01T00:26:58.420Z,16.70
2023-05-01T00:29:24.582Z,21.13
2023-05-01T00:31:50.714Z,13.30
2023-05-01T00:34:16.592Z,12.43
2023-05-01T00:36:42.455Z,15.38
2023-05-01T00:39:08.465Z,20.70
2023-05-01T00:41:34.569Z,15.23
2023-05-01T00:44:00.480Z,14.23
2023-05-01T00:46:27.501Z,16.38
2023-05-01T00:48:53.495Z,16.58
2023-05-01T00:51:20.388Z,18.02
2023-05-01T00:53:46.139Z,19.08
2023-05-01T00:56:12.027Z,16.30
2023-05-01T00:58:38.481Z,15.75
2023-05-01T01:01:04.753Z,16.50
2023-05-01T01:03:30.924Z,18.23
2023-05-01T01:06:00.047Z,18.27
2023-05-01T01:08:28.008Z,16.80
2023-05-01T01:11:14.109Z,18.73
2023-05-01T01:13:46.854Z,13.73
2023-05-01T01:16:18.727Z,17.52
2023-05-01T01:18:47.398Z,13.02
2023-05-01T01:21:21.206Z,17.08
2023-05-01T01:23:46.963Z,16.35
2023-05-01T01:26:15.605Z,13.82
2023-05-01T01:29:00.496Z,17.80
2023-05-01T01:31:26.426Z,15.15
2023-05-01T01:34:27.369Z,15.93
2023-05-01T01:39:41.598Z,15.95
2023-05-01T01:42:09.193Z,16.58
2023-05-01T01:44:42.759Z,13.73
2023-05-01T01:47:10.728Z,18.50
2023-05-01T01:49:37.878Z,17.10
2023-05-01T01:52:04.859Z,20.55
2023-05-01T01:54:36.906Z,17.77
2023-05-01T01:57:02.870Z,18.52
2023-05-01T01:59:33.063Z,13.40
2023-05-01T02:02:00.533Z,18.77
2023-05-01T02:04:27.225Z,19.05
2023-05-01T02:06:55.201Z,15.77
2023-05-01T02:09:22.147Z,16.58
2023-05-01T02:11:51.849Z,16.95
2023-05-01T02:14:18.485Z,14.65
2023-05-01T02:16:44.717Z,17.45
2023-05-01T02:19:11.046Z,16.52
2023-05-01T02:21:37.782Z,15.13
2023-05-01T02:24:04.834Z,14.93
2023-05-01T02:26:31.279Z,16.13
2023-05-01T02:28:57.908Z,16.90
2023-05-01T02:31:23.805Z,15.27
2023-05-01T02:33:49.646Z,16.48
2023-05-01T02:36:15.480Z,15.82
2023-05-01T02:38:41.389Z,13.93
2023-05-01T02:41:08.029Z,13.43
2023-05-01T02:43:34.667Z,18.00
2023-05-01T02:46:01.654Z,17.92
2023-05-01T02:48:28.238Z,13.32
2023-05-01T02:50:55.222Z,11.93
2023-05-01T02:53:21.828Z,18.02
2023-05-01T02:55:48.089Z,13.88
2023-05-01T02:58:17.457Z,14.30
2023-05-01T03:00:44.137Z,13.68
2023-05-01T03:03:10.352Z,15.60
2023-05-01T03:05:37.600Z,11.57
2023-05-01T03:08:03.698Z,15.50
2023-05-01T03:10:29.462Z,22.80
2023-05-01T03:12:55.435Z,10.57
2023-05-01T03:15:21.245Z,11.23
2023-05-01T03:17:47.185Z,18.40
2023-05-01T03:20:13.094Z,15.52
2023-05-01T03:22:39.023Z,15.10
2023-05-01T03:25:05.081Z,17.52
2023-05-01T03:27:31.065Z,15.50
2023-05-01T03:29:57.276Z,14.68
2023-05-01T03:32:27.739Z,12.63
2023-05-01T03:34:53.755Z,18.27
2023-05-01T03:37:20.215Z,11.77
2023-05-01T03:39:46.192Z,13.13
2023-05-01T03:42:12.020Z,11.60
2023-05-01T03:44:37.829Z,14.40
2023-05-01T03:47:04.194Z,13.98
2023-05-01T03:49:30.125Z,12.70
2023-05-01T03:51:56.306Z,14.77
2023-05-01T03:54:22.125Z,18.73
2023-05-01T03:56:47.946Z,14.95
2023-05-01T03:59:13.969Z,16.23
2023-05-01T04:01:40.133Z,12.38
2023-05-01T04:04:07.403Z,15.15
2023-05-01T04:06:33.374Z,11.18
2023-05-01T04:08:59.405Z,11.05
2023-05-01T04:11:25.623Z,14.70
2023-05-01T04:13:51.356Z,12.90
2023-05-01T04:16:17.637Z,12.27
2023-05-01T04:18:43.423Z,13.75
2023-05-01T04:21:09.322Z,16.88
2023-05-01T04:23:35.224Z,12.10
2023-05-01T04:26:01.068Z,12.73
2023-05-01T04:28:30.354Z,13.70
2023-05-01T04:30:56.979Z,10.75
2023-05-01T04:33:22.986Z,10.85
2023-05-01T04:35:48.835Z,12.20
2023-05-01T04:38:14.634Z,12.80
2023-05-01T04:40:40.464Z,12.00
2023-05-01T04:43:06.274Z,11.10
2023-05-01T04:45:32.067Z,12.65
2023-05-01T04:47:57.904Z,10.68
2023-05-01T04:50:23.829Z,13.07
2023-05-01T04:52:49.625Z,12.43
2023-05-01T04:55:15.966Z,11.00
2023-05-01T04:57:41.769Z,8.55
2023-05-01T05:00:07.985Z,9.55
2023-05-01T05:02:37.030Z,8.82
2023-05-01T05:05:03.377Z,9.25
2023-05-01T05:07:29.733Z,8.75
2023-05-01T05:09:56.112Z,9.35
2023-05-01T05:12:22.566Z,10.55
2023-05-01T05:14:49.321Z,10.07
2023-05-01T05:17:15.721Z,9.88
2023-05-01T05:19:42.743Z,8.73
2023-05-01T05:22:09.619Z,9.07
2023-05-01T05:24:36.760Z,8.25
2023-05-01T05:29:59.235Z,11.27
2023-05-01T05:32:26.587Z,7.93
2023-05-01T05:34:53.524Z,6.88
2023-05-01T05:37:24.592Z,7.07
2023-05-01T05:39:52.873Z,10.45
2023-05-01T05:42:19.896Z,12.45
2023-05-01T05:44:50.089Z,9.35
2023-05-01T05:47:24.766Z,6.35
2023-05-01T05:49:51.839Z,9.75
2023-05-01T05:52:19.266Z,7.28
2023-05-01T05:54:54.896Z,7.22
2023-05-01T06:00:18.381Z,5.85
2023-05-01T06:05:29.273Z,8.82
2023-05-01T06:13:19.731Z,7.97
2023-05-01T06:15:46.017Z,7.57
2023-05-01T06:18:21.158Z,6.38
2023-05-01T06:20:52.031Z,6.95
2023-05-01T06:23:21.476Z,9.10
2023-05-01T06:25:52.956Z,8.63
2023-05-01T06:28:20.304Z,8.02
2023-05-01T06:30:50.704Z,10.10
2023-05-01T06:35:59.894Z,7.63
2023-05-01T06:41:08.928Z,12.88
2023-05-01T06:43:37.578Z,8.20
2023-05-01T06:46:14.434Z,7.97
2023-05-01T06:48:40.707Z,6.88
2023-05-01T06:51:07.674Z,7.47
2023-05-01T06:59:14.090Z,6.82
2023-05-01T07:01:43.615Z,8.10
2023-05-01T07:04:11.773Z,7.97
2023-05-01T07:06:39.090Z,13.05
2023-05-01T07:09:06.718Z,9.48
2023-05-01T07:11:34.624Z,8.15
2023-05-01T07:14:01.789Z,11.52
2023-05-01T07:16:36.571Z,7.10
2023-05-01T07:27:12.899Z,7.70
2023-05-01T07:29:43.244Z,6.88
2023-05-01T07:32:11.082Z,9.80
2023-05-01T07:34:38.366Z,6.55
2023-05-01T07:37:15.410Z,6.70
2023-05-01T07:39:42.926Z,7.05
2023-05-01T07:42:14.623Z,8.80
2023-05-01T07:44:41.770Z,7.63
2023-05-01T07:47:12.365Z,8.75
2023-05-01T07:52:20.603Z,6.90
2023-05-01T07:54:51.110Z,8.82
2023-05-01T07:57:25.879Z,6.50
2023-05-01T08:00:21.238Z,7.03
2023-05-01T08:05:37.424Z,6.30
2023-05-01T08:08:08.080Z,6.88
2023-05-01T08:15:49.584Z,4.40
2023-05-01T08:18:20.951Z,8.35
2023-05-01T08:20:52.689Z,6.00
2023-05-01T08:23:23.908Z,4.63
2023-05-01T08:25:55.665Z,7.75
2023-05-01T08:28:26.966Z,8.65
2023-05-01T08:31:21.412Z,6.68
2023-05-01T08:33:53.448Z,9.15
2023-05-01T08:36:29.578Z,5.90
2023-05-01T12:33:15.381Z,8.50
2023-05-01T12:38:33.097Z,6.28
2023-05-01T15:42:36.711Z,12.07
2023-05-01T15:56:06.571Z,5.82
2023-05-01T16:03:59.027Z,8.00
2023-05-01T16:09:09.425Z,7.22
2023-05-01T16:12:05.031Z,6.90
2023-05-01T16:14:33.832Z,7.60
2023-05-01T16:22:29.063Z,7.35
2023-05-01T16:28:00.221Z,4.28
2023-05-01T16:33:58.958Z,6.03
2023-05-01T16:42:08.240Z,5.33
2023-05-01T16:52:49.332Z,5.07
2023-05-01T17:04:31.279Z,5.55
2023-05-01T17:06:59.147Z,4.63
2023-05-01T17:14:58.607Z,6.40
2023-05-01T17:20:14.499Z,6.82
2023-05-01T17:25:28.922Z,6.07
2023-05-01T17:28:00.961Z,6.15
2023-05-01T17:36:00.008Z,6.63
2023-05-01T17:38:35.756Z,9.88
2023-05-01T17:41:12.814Z,5.20
2023-05-01T17:43:40.662Z,9.48
2023-05-01T17:46:14.039Z,6.78
2023-05-01T17:48:50.968Z,6.50
2023-05-01T18:51:22.284Z,6.32
2023-05-01T18:59:13.980Z,7.10
2023-05-01T19:04:29.454Z,23.00
2023-05-01T19:09:41.882Z,5.88
2023-05-01T19:14:41.966Z,11.07
2023-05-01T19:22:45.644Z,7.47
2023-05-01T19:25:12.906Z,9.90
2023-05-01T19:27:43.888Z,8.88
2023-05-01T19:33:15.725Z,13.75
2023-05-01T19:38:30.196Z,6.85
2023-05-01T19:40:57.606Z,8.48
2023-05-01T19:46:06.079Z,9.07
2023-05-01T19:48:38.003Z,9.38
2023-05-01T19:51:09.024Z,9.70
2023-05-01T19:53:36.270Z,7.13
2023-05-01T19:56:09.802Z,7.15
2023-05-01T19:58:41.216Z,7.93
2023-05-01T20:02:14.372Z,7.28
2023-05-01T20:10:08.056Z,15.57
2023-05-01T20:18:08.254Z,13.50
2023-05-01T20:20:37.010Z,11.90
2023-05-01T20:23:11.219Z,11.00
2023-05-01T20:25:39.594Z,9.75
2023-05-01T20:28:11.901Z,11.15
2023-05-01T20:33:22.407Z,7.93
2023-05-01T20:35:48.954Z,8.90
2023-05-01T20:49:15.117Z,5.95
2023-05-01T20:51:45.086Z,13.83
2023-05-01T20:54:13.547Z,8.20
2023-05-01T20:56:45.811Z,9.02
2023-05-01T21:02:33.518Z,9.20
2023-05-01T21:05:10.407Z,8.98
2023-05-01T21:10:30.138Z,8.55
2023-05-01T21:15:50.075Z,5.72
2023-05-01T21:21:03.337Z,6.53
2023-05-01T21:23:39.493Z,10.95
2023-05-01T21:29:12.092Z,10.07
2023-05-01T21:31:45.952Z,5.80
2023-05-01T21:36:54.689Z,7.93
2023-05-01T21:39:32.578Z,7.90
2023-05-01T21:42:00.278Z,8.85
2023-05-01T21:44:30.366Z,6.70
2023-05-01T21:49:40.625Z,9.32
2023-05-01T21:52:11.840Z,8.35
2023-05-01T21:54:39.473Z,14.18
2023-05-01T22:00:25.580Z,8.95
2023-05-01T22:02:51.545Z,7.97
2023-05-01T22:05:19.218Z,7.53
2023-05-01T22:07:45.358Z,9.65
2023-05-01T22:10:12.176Z,9.52
2023-05-01T22:12:39.002Z,9.77
2023-05-01T22:15:05.985Z,8.23
2023-05-01T22:17:31.853Z,8.98
2023-05-01T22:19:57.826Z,7.32
2023-05-01T22:22:23.901Z,8.00
2023-05-01T22:24:49.766Z,9.25
2023-05-01T22:27:15.598Z,8.95
2023-05-01T22:29:41.712Z,7.75
2023-05-01T22:32:10.848Z,13.13
2023-05-01T22:34:36.819Z,7.85
2023-05-01T22:37:02.752Z,9.88
2023-05-01T22:39:29.190Z,11.60
2023-05-01T22:41:55.094Z,9.63
2023-05-01T22:44:22.452Z,9.88
2023-05-01T22:46:48.429Z,6.63
2023-05-01T22:49:14.228Z,8.65
2023-05-01T22:51:40.128Z,7.32
2023-05-01T22:54:05.925Z,9.57
2023-05-01T22:56:31.763Z,8.27
2023-05-01T22:58:57.714Z,10.73
2023-05-01T23:01:23.764Z,8.52
2023-05-01T23:03:50.121Z,8.18
2023-05-01T23:06:17.620Z,10.65
2023-05-01T23:08:43.495Z,9.70
2023-05-01T23:11:10.052Z,10.25
2023-05-01T23:13:36.670Z,8.88
2023-05-01T23:16:02.663Z,9.27
2023-05-01T23:18:32.504Z,9.00
2023-05-01T23:20:58.571Z,9.63
2023-05-01T23:23:29.367Z,9.30
2023-05-01T23:25:55.177Z,10.57
2023-05-01T23:28:22.064Z,10.43
2023-05-01T23:30:52.156Z,9.43
2023-05-01T23:33:20.881Z,9.00
2023-05-01T23:35:47.301Z,9.00
2023-05-01T23:38:13.286Z,9.10
2023-05-01T23:40:39.655Z,14.27
2023-05-01T23:43:05.678Z,8.95
2023-05-01T23:45:31.802Z,10.88
2023-05-01T23:47:58.061Z,9.35
2023-05-01T23:50:24.783Z,7.00
2023-05-01T23:52:51.367Z,7.35
2023-05-01T23:55:17.346Z,8.52
2023-05-01T23:57:43.318Z,7.82
